createdAt,value
2019-03-09T00:02:09.362Z,4.40
2019-03-09T00:07:12.289Z,4.80
2019-03-09T00:12:15.498Z,3.10
2019-03-09T00:17:18.307Z,3.63
2019-03-09T00:22:21.198Z,3.77
2019-03-09T00:27:30.880Z,3.70
2019-03-09T00:32:33.706Z,4.00
2019-03-09T00:37:37.326Z,4.03
2019-03-09T00:42:41.928Z,4.20
2019-03-09T00:47:44.335Z,3.47
2019-03-09T00:52:46.898Z,3.60
2019-03-09T00:57:50.463Z,4.10
2019-03-09T01:02:53.408Z,4.97
2019-03-09T01:07:55.995Z,3.90
2019-03-09T01:12:59.140Z,4.60
2019-03-09T01:18:01.982Z,5.33
2019-03-09T01:23:04.842Z,4.97
2019-03-09T01:28:08.388Z,4.87
2019-03-09T01:33:11.365Z,5.10
2019-03-09T01:38:14.843Z,6.73
2019-03-09T01:43:18.752Z,6.43
2019-03-09T01:48:21.901Z,5.03
2019-03-09T01:53:24.437Z,4.87
2019-03-09T01:58:27.930Z,5.00
2019-03-09T02:03:30.722Z,9.20
2019-03-09T02:08:33.931Z,6.27
2019-03-09T02:13:36.835Z,7.03
2019-03-09T02:18:40.041Z,7.83
2019-03-09T02:23:43.251Z,8.20
2019-03-09T02:28:45.851Z,10.20
2019-03-09T02:33:49.063Z,11.20
2019-03-09T02:38:59.238Z,12.97
2019-03-09T02:44:02.440Z,15.23
2019-03-09T02:49:05.974Z,17.90
2019-03-09T02:54:09.112Z,16.70
2019-03-09T02:59:12.270Z,18.97
2019-03-09T03:04:16.861Z,19.00
2019-03-09T03:09:19.727Z,20.70
2019-03-09T03:14:23.203Z,19.63
2019-03-09T03:19:26.391Z,17.43
2019-03-09T03:24:29.357Z,15.20
2019-03-09T03:29:32.849Z,16.97
2019-03-09T03:34:36.053Z,13.10
2019-03-09T03:39:39.285Z,13.13
2019-03-09T03:44:45.483Z,11.50
2019-03-09T03:49:49.062Z,11.80
2019-03-09T03:54:52.147Z,13.70
2019-03-09T03:59:55.167Z,11.13
2019-03-09T04:04:57.721Z,11.33
2019-03-09T04:10:01.537Z,11.93
2019-03-09T04:15:05.578Z,12.00
2019-03-09T04:20:09.996Z,12.53
2019-03-09T04:25:13.781Z,12.07
2019-03-09T04:30:17.022Z,11.10
2019-03-09T04:35:20.240Z,12.30
2019-03-09T04:40:23.548Z,13.93
2019-03-09T04:45:27.069Z,11.27
2019-03-09T04:50:30.553Z,10.63
2019-03-09T04:55:33.034Z,11.80
2019-03-09T05:00:35.631Z,10.37
2019-03-09T05:05:38.463Z,11.63
2019-03-09T05:10:50.480Z,10.60
2019-03-09T05:15:53.692Z,10.40
2019-03-09T05:20:56.960Z,8.33
2019-03-09T05:26:00.215Z,9.07
2019-03-09T05:31:03.413Z,6.83
2019-03-09T05:36:05.924Z,7.10
2019-03-09T05:41:09.430Z,7.50
2019-03-09T05:46:12.954Z,6.10
2019-03-09T05:51:15.508Z,6.27
2019-03-09T05:56:18.363Z,5.00
2019-03-09T06:01:21.353Z,5.27
2019-03-09T06:06:24.851Z,5.03
2019-03-09T06:11:28.481Z,6.63
2019-03-09T06:16:31.496Z,5.63
2019-03-09T06:21:34.653Z,6.07
2019-03-09T06:26:37.814Z,8.03
2019-03-09T06:31:43.045Z,6.77
2019-03-09T06:37:09.122Z,6.37
2019-03-09T06:42:39.490Z,6.67
2019-03-09T06:47:41.967Z,7.90
2019-03-09T06:52:44.858Z,7.00
2019-03-09T06:57:47.767Z,7.13
2019-03-09T07:02:50.936Z,6.47
2019-03-09T07:07:53.869Z,6.47
2019-03-09T07:12:56.785Z,6.37
2019-03-09T07:18:02.309Z,8.67
2019-03-09T07:23:05.689Z,7.27
2019-03-09T07:28:11.026Z,7.43
2019-03-09T07:33:13.909Z,8.80
2019-03-09T07:38:16.817Z,6.53
2019-03-09T07:43:19.765Z,6.90
2019-03-09T07:48:22.978Z,9.50
2019-03-09T07:53:26.355Z,7.47
2019-03-09T07:58:29.342Z,8.90
2019-03-09T08:03:32.983Z,7.27
2019-03-09T08:08:36.469Z,10.47
2019-03-09T08:13:39.716Z,10.37
2019-03-09T08:18:42.397Z,6.83
2019-03-09T08:23:45.655Z,7.57
2019-03-09T08:28:48.990Z,8.70
2019-03-09T08:33:52.126Z,6.53
2019-03-09T08:38:55.511Z,6.17
2019-03-09T08:43:58.757Z,6.17
2019-03-09T08:49:02.379Z,6.60
2019-03-09T08:54:05.750Z,6.50
2019-03-09T08:59:08.709Z,5.87
2019-03-09T09:04:12.318Z,6.80
2019-03-09T09:09:15.654Z,6.40
2019-03-09T09:14:18.810Z,6.20
2019-03-09T09:19:22.153Z,6.57
2019-03-09T09:24:25.718Z,7.53
2019-03-09T09:29:29.003Z,7.73
2019-03-09T09:34:32.201Z,6.73
2019-03-09T09:39:35.089Z,5.47
2019-03-09T09:44:38.403Z,6.80
2019-03-09T09:49:41.912Z,5.27
2019-03-09T09:54:45.149Z,6.90
2019-03-09T09:59:48.654Z,5.20
2019-03-09T10:04:51.998Z,6.03
2019-03-09T10:09:55.599Z,6.60
2019-03-09T10:14:59.096Z,5.10
2019-03-09T10:20:02.039Z,5.80
2019-03-09T10:25:05.392Z,5.03
2019-03-09T10:30:12.007Z,7.60
2019-03-09T10:35:16.726Z,5.97
2019-03-09T10:40:19.651Z,5.70
2019-03-09T10:45:22.095Z,5.30
2019-03-09T10:50:26.093Z,5.83
2019-03-09T10:55:29.426Z,6.33
2019-03-09T11:00:32.971Z,5.53
2019-03-09T11:05:36.549Z,6.67
2019-03-09T11:10:39.391Z,5.60
2019-03-09T11:15:42.641Z,5.50
2019-03-09T11:20:45.559Z,4.90
2019-03-09T11:25:49.062Z,6.60
2019-03-09T11:30:52.369Z,4.90
2019-03-09T11:35:55.951Z,6.00
2019-03-09T11:41:00.837Z,5.07
2019-03-09T11:46:04.634Z,5.77
2019-03-09T11:51:07.661Z,5.37
2019-03-09T11:56:10.562Z,6.20
2019-03-09T12:01:13.795Z,5.97
2019-03-09T12:06:17.791Z,6.30
2019-03-09T12:11:21.349Z,5.47
2019-03-09T12:16:24.910Z,4.63
2019-03-09T12:21:27.970Z,4.77
2019-03-09T12:26:32.015Z,5.53
2019-03-09T12:31:38.447Z,6.60
2019-03-09T12:36:41.657Z,5.77
2019-03-09T12:41:48.168Z,6.33
2019-03-09T12:46:51.976Z,6.83
2019-03-09T12:51:55.235Z,5.00
2019-03-09T12:56:58.563Z,5.40
2019-03-09T13:02:02.224Z,4.33
2019-03-09T13:07:05.496Z,5.50
2019-03-09T13:12:10.047Z,5.50
2019-03-09T13:17:13.606Z,5.00
2019-03-09T13:22:16.529Z,4.60
2019-03-09T13:27:19.709Z,5.87
2019-03-09T13:32:22.624Z,6.10
2019-03-09T13:37:26.153Z,6.40
2019-03-09T13:42:29.397Z,6.80
2019-03-09T13:47:32.680Z,7.20
2019-03-09T13:52:36.691Z,5.23
2019-03-09T13:57:40.221Z,5.20
2019-03-09T14:02:44.091Z,5.77
2019-03-09T14:07:50.205Z,6.50
2019-03-09T14:12:53.863Z,6.17
2019-03-09T14:17:57.664Z,8.27
2019-03-09T14:23:00.987Z,7.70
2019-03-09T14:28:04.285Z,6.43
2019-03-09T14:33:07.252Z,7.20
2019-03-09T14:38:10.872Z,6.60
2019-03-09T14:43:14.328Z,7.23
2019-03-09T14:48:17.664Z,5.70
2019-03-09T14:53:20.945Z,3.30
2019-03-09T14:58:26.022Z,3.03
2019-03-09T15:03:29.288Z,4.60
2019-03-09T15:08:32.504Z,5.78
2019-03-09T15:13:35.024Z,4.20
2019-03-09T15:18:37.601Z,4.03
2019-03-09T15:23:41.156Z,5.07
2019-03-09T15:28:44.430Z,4.07
2019-03-09T15:33:47.981Z,4.47
2019-03-09T15:38:51.482Z,3.40
2019-03-09T15:43:55.054Z,5.13
2019-03-09T15:48:58.152Z,4.70
2019-03-09T15:54:01.265Z,4.30
2019-03-09T15:59:04.911Z,4.67
2019-03-09T16:04:08.239Z,3.98
2019-03-09T16:09:11.604Z,4.10
2019-03-09T16:14:15.178Z,3.07
2019-03-09T16:19:19.700Z,3.60
2019-03-09T16:24:25.453Z,4.90
2019-03-09T16:29:28.709Z,3.90
2019-03-09T16:34:32.333Z,5.87
2019-03-09T16:39:35.845Z,5.10
2019-03-09T16:44:39.417Z,4.70
2019-03-09T16:49:42.752Z,2.20
2019-03-09T16:54:45.968Z,1.60
2019-03-09T16:59:49.228Z,1.40
2019-03-09T17:04:52.828Z,1.50
2019-03-09T17:09:55.747Z,1.00
2019-03-09T17:14:59.342Z,0.83
2019-03-09T17:20:03.123Z,0.87
2019-03-09T17:25:07.130Z,0.70
2019-03-09T17:30:12.473Z,0.90
2019-03-09T17:35:15.408Z,1.70
2019-03-09T17:40:18.023Z,1.33
2019-03-09T17:45:21.423Z,1.80
2019-03-09T17:50:24.731Z,1.33
2019-03-09T17:55:28.006Z,1.10
2019-03-09T18:00:42.063Z,1.80
2019-03-09T18:05:38.985Z,1.90
2019-03-09T18:10:45.021Z,1.67
2019-03-09T18:15:48.302Z,1.40
2019-03-09T18:20:51.382Z,1.03
2019-03-09T18:25:54.793Z,1.70
2019-03-09T18:30:58.437Z,1.53
2019-03-09T18:36:01.866Z,1.60
2019-03-09T18:41:05.237Z,1.60
2019-03-09T18:46:08.516Z,1.67
2019-03-09T18:51:12.089Z,1.63
2019-03-09T18:56:15.353Z,1.53
2019-03-09T19:01:18.772Z,1.50
2019-03-09T19:06:23.905Z,1.40
2019-03-09T19:11:31.357Z,2.27
2019-03-09T19:16:37.653Z,2.07
2019-03-09T19:21:42.411Z,1.90
2019-03-09T19:26:47.525Z,2.43
2019-03-09T19:31:53.462Z,2.80
2019-03-09T19:37:00.897Z,3.57
2019-03-09T19:42:06.867Z,2.50
2019-03-09T19:47:12.606Z,2.60
2019-03-09T19:52:18.112Z,2.70
2019-03-09T19:57:25.277Z,2.17
2019-03-09T20:02:32.394Z,1.90
2019-03-09T20:07:40.738Z,2.50
2019-03-09T20:12:48.545Z,2.27
2019-03-09T20:17:56.974Z,2.20
2019-03-09T20:23:03.262Z,2.90
2019-03-09T20:28:10.410Z,3.50
2019-03-09T20:33:18.572Z,3.57
2019-03-09T20:38:29.216Z,2.83
2019-03-09T20:43:37.786Z,2.73
2019-03-09T20:48:46.621Z,1.70
2019-03-09T20:53:52.679Z,1.47
2019-03-09T20:58:58.577Z,1.77
2019-03-09T21:04:06.417Z,1.37
2019-03-09T21:09:12.807Z,2.40
2019-03-09T21:14:19.202Z,1.63
2019-03-09T21:19:26.203Z,2.23
2019-03-09T21:24:30.540Z,2.00
2019-03-09T21:29:34.185Z,2.33
2019-03-09T21:34:38.163Z,2.13
2019-03-09T21:39:41.423Z,2.47
2019-03-09T21:44:44.692Z,2.93
2019-03-09T21:49:47.737Z,4.50
2019-03-09T21:54:50.743Z,5.43
2019-03-09T21:59:53.753Z,4.47
2019-03-09T22:04:56.331Z,5.03
2019-03-09T22:10:00.920Z,4.53
2019-03-09T22:15:04.712Z,4.40
2019-03-09T22:20:08.087Z,4.40
2019-03-09T22:25:11.778Z,5.07
2019-03-09T22:30:14.646Z,5.50
2019-03-09T22:35:18.303Z,4.53
2019-03-09T22:40:21.945Z,4.67
2019-03-09T22:45:25.291Z,5.57
2019-03-09T22:50:28.593Z,4.60
2019-03-09T22:55:31.800Z,5.00
2019-03-09T23:00:36.673Z,5.10
2019-03-09T23:05:39.632Z,4.40
2019-03-09T23:10:43.235Z,5.90
2019-03-09T23:15:45.884Z,4.57
2019-03-09T23:20:48.459Z,5.97
2019-03-09T23:25:51.393Z,3.80
2019-03-09T23:30:54.669Z,5.20
2019-03-09T23:35:57.861Z,4.67
2019-03-09T23:41:01.932Z,4.97
2019-03-09T23:46:05.144Z,4.37
2019-03-09T23:51:08.469Z,5.80
2019-03-09T23:56:13.621Z,5.40
